Friday, July 20, 2018, 8:22 PM EDT
Back to Local

KIAG, Niagara Falls International Airport

Location: Niagara Falls, NY, United States Lat: 43.117
Local Time: 8:22 PM EDT ( 0:22 GMT) Lon: -78.933
Time Zone: US/Eastern Elev: 583 ft

Show me the last for .
Show Decoded

2018-07-20 19:53 METAR KIAG 202353Z 14014G21KT 10SM SCT070 BKN085 29/15 A2989 RMK AO2 SLP115
                 T02940150 10328 20294 55004 =
2018-07-20 18:53 METAR KIAG 202253Z 15007KT 10SM SCT075 31/14 A2988 RMK AO2 SLP115 T03060144 =
2018-07-20 17:53 METAR KIAG 202153Z 20012KT 10SM CLR 31/13 A2989 RMK AO2 SLP118 T03110133 =
2018-07-20 16:53 METAR KIAG 202053Z 20012KT 10SM CLR 32/12 A2990 RMK AO2 SLP122 T03170122 56018 =
2018-07-20 15:53 METAR KIAG 201953Z 15015G20KT 10SM CLR 32/13 A2992 RMK AO2 SLP127 T03220133 =
2018-07-20 14:53 METAR KIAG 201853Z 15012KT 10SM CLR 32/12 A2993 RMK AO2 SLP131 T03220117 =
2018-07-20 13:53 METAR KIAG 201753Z 17013G17KT 10SM CLR 32/13 A2996 RMK AO2 SLP138 T03170128
                 10317 20206 58016 =
2018-07-20 12:53 METAR KIAG 201653Z 19013G18KT 10SM CLR 32/13 A2997 RMK AO2 SLP144 T03170128 =
2018-07-20 11:53 METAR KIAG 201553Z 17011KT 10SM CLR 30/14 A2999 RMK AO2 SLP150 T03000144 =
2018-07-20 10:53 METAR KIAG 201453Z 17009KT 10SM CLR 29/15 A3000 RMK AO2 SLP155 T02890150 58005 =
2018-07-20 09:53 METAR KIAG 201353Z 18008KT 10SM CLR 27/15 A3002 RMK AO2 SLP159 T02720150 =
2018-07-20 08:53 METAR KIAG 201253Z 17006KT 10SM CLR 24/15 A3003 RMK AO2 SLP162 T02440150 =
2018-07-20 07:53 METAR KIAG 201153Z 12005KT 10SM CLR 21/14 A3002 RMK AO2 SLP161 T02060144 10206
                 20144 58001 =
2018-07-20 06:53 METAR KIAG 201053Z 09003KT 10SM CLR 16/13 A3003 RMK AO2 SLP164 T01610128 =
2018-07-20 05:53 METAR KIAG 200953Z AUTO 09003KT 10SM CLR 15/12 A3002 RMK AO2 SLP164 T01500117 =
2018-07-20 04:53 METAR KIAG 200853Z AUTO 08003KT 10SM CLR 15/12 A3002 RMK AO2 SLP164 T01500117
                 56002 =
2018-07-20 03:53 METAR KIAG 200753Z AUTO 08003KT 10SM CLR 16/12 A3003 RMK AO2 SLP165 T01560117 =
2018-07-20 02:53 METAR KIAG 200653Z AUTO 09004KT 10SM CLR 17/12 A3003 RMK AO2 SLP164 T01670122 =
2018-07-20 01:53 METAR KIAG 200553Z AUTO 10004KT 10SM CLR 18/12 A3003 RMK AO2 SLP166 T01780122
                 10261 20172 58005 =
2018-07-20 00:53 METAR KIAG 200453Z 10005KT 10SM CLR 18/12 A3004 RMK AO2 SLP170 T01780117
                 402830144 =
2018-07-19 23:53 METAR KIAG 200353Z 11005KT 10SM CLR 18/11 A3004 RMK AO2 SLP170 T01830111 =
2018-07-19 22:53 METAR KIAG 200253Z 10005KT 10SM CLR 19/10 A3005 RMK AO2 SLP172 T01940100 50003 =
2018-07-19 21:53 METAR KIAG 200153Z 09004KT 10SM CLR 21/11 A3005 RMK AO2 SLP173 T02060106 =
2018-07-19 20:53 METAR KIAG 200053Z 07006KT 10SM CLR 23/11 A3004 RMK AO2 SLP169 T02280106 =

Support USWX by starting your Amazon purchase here.